Time;durP1;ratioP1;P1;durP2;ratioP2;P2;SDS_P1;SDS_P2;PMS_P1;PMS_P2;Temp;Humidity;BMP_temperature;BMP_pressure;BME280_temperature;BME280_humidity;BME280_pressure;Samples;Min_cycle;Max_cycle;Signal;HPM_P1;HPM_P2
2022/05/23 00:01:49;;;;;;;3.10;2.80;;;;;;;11.53;100.00;90561.03;5031173;28;20538;-61
2022/05/23 00:04:14;;;;;;;3.75;2.70;;;;;;;11.56;100.00;90564.94;5031236;28;20475;-61
2022/05/23 00:06:40;;;;;;;4.05;2.85;;;;;;;11.62;100.00;90561.75;5031088;28;20044;-61
2022/05/23 00:09:06;;;;;;;4.07;3.00;;;;;;;11.59;100.00;90556.28;5031103;28;20452;-61
2022/05/23 00:11:32;;;;;;;4.68;3.25;;;;;;;11.59;100.00;90572.28;5031005;28;20400;-61
2022/05/23 00:13:58;;;;;;;4.10;3.13;;;;;;;11.53;100.00;90566.38;5031039;28;20029;-61
2022/05/23 00:16:26;;;;;;;4.32;3.25;;;;;;;11.61;100.00;90568.19;5030915;28;20033;-61
2022/05/23 00:18:52;;;;;;;3.70;3.03;;;;;;;11.64;100.00;90572.88;5030976;28;20036;-61
2022/05/23 00:21:18;;;;;;;4.60;3.15;;;;;;;11.48;100.00;90561.22;5031103;28;20782;-61
2022/05/23 00:23:44;;;;;;;4.85;3.42;;;;;;;11.44;100.00;90560.31;5030882;28;20407;-61
2022/05/23 00:26:12;;;;;;;4.75;3.15;;;;;;;11.50;100.00;90560.88;5030676;28;20041;-61
2022/05/23 00:28:38;;;;;;;4.65;3.33;;;;;;;11.48;100.00;90561.22;5031120;28;20057;-61
2022/05/23 00:31:06;;;;;;;4.85;3.30;;;;;;;11.51;100.00;90557.88;5030866;28;20029;-61
2022/05/23 00:36:15;;;;;;;4.40;4.00;;;;;;;11.47;100.00;90554.31;5030711;28;20068;-61
2022/05/23 00:38:40;;;;;;;6.43;3.85;;;;;;;11.47;100.00;90546.31;5031050;28;20029;-61
2022/05/23 00:44:01;;;;;;;7.45;3.60;;;;;;;11.43;100.00;90545.41;5030682;28;20037;-61
2022/05/23 00:46:27;;;;;;;6.13;4.20;;;;;;;11.30;100.00;90546.44;5030631;28;20033;-61
2022/05/23 00:48:53;;;;;;;4.80;3.97;;;;;;;11.25;100.00;90536.75;5030791;28;20025;-61
2022/05/23 00:51:19;;;;;;;3.35;3.05;;;;;;;11.21;100.00;90535.06;5030737;28;20565;-61
2022/05/23 00:53:50;;;;;;;4.57;3.30;;;;;;;11.33;100.00;90548.44;5030723;28;20022;-61
2022/05/23 00:56:19;;;;;;;3.22;2.85;;;;;;;11.32;100.00;90549.56;5030653;28;20030;-61
2022/05/23 00:58:50;;;;;;;4.45;3.45;;;;;;;11.26;100.00;90553.50;5030684;28;20034;-61
2022/05/23 01:01:25;;;;;;;7.13;3.50;;;;;;;11.12;100.00;90543.06;5030830;28;20450;-61
2022/05/23 01:03:50;;;;;;;5.40;3.72;;;;;;;11.06;100.00;90547.81;5031102;28;20045;-61
2022/05/23 01:06:16;;;;;;;4.38;3.63;;;;;;;11.16;100.00;90548.53;5034161;28;20025;-61
2022/05/23 01:08:42;;;;;;;4.00;3.47;;;;;;;11.18;100.00;90555.09;5034376;28;20061;-61
2022/05/23 01:11:09;;;;;;;4.65;3.85;;;;;;;11.19;100.00;90556.66;5034157;28;20104;-61
2022/05/23 01:13:34;;;;;;;3.65;3.15;;;;;;;11.18;100.00;90549.00;5033945;28;20602;-61
2022/05/23 01:16:00;;;;;;;4.38;3.28;;;;;;;11.15;100.00;90546.97;5033984;28;20117;-61
2022/05/23 01:18:26;;;;;;;4.22;3.20;;;;;;;11.19;100.00;90539.91;5034058;28;20492;-61
2022/05/23 01:21:05;;;;;;;6.97;4.15;;;;;;;11.22;100.00;90542.72;5034022;28;20415;-61
2022/05/23 01:23:55;;;;;;;4.53;3.60;;;;;;;11.30;100.00;90536.56;5034107;28;20034;-61
2022/05/23 01:26:20;;;;;;;4.63;3.10;;;;;;;11.30;100.00;90525.13;5033619;28;20091;-61
2022/05/23 01:28:46;;;;;;;3.97;3.50;;;;;;;11.23;100.00;90530.97;5033816;28;20021;-61
2022/05/23 01:31:15;;;;;;;3.47;3.08;;;;;;;11.10;100.00;90539.97;5033689;28;20033;-61
2022/05/23 01:33:41;;;;;;;4.45;3.25;;;;;;;10.99;100.00;90523.56;5033876;28;20499;-61
2022/05/23 01:36:11;;;;;;;4.15;3.70;;;;;;;11.06;100.00;90534.50;5033742;28;20121;-61
2022/05/23 01:38:37;;;;;;;4.55;4.00;;;;;;;10.98;100.00;90535.31;5033510;28;20400;-61
2022/05/23 01:41:04;;;;;;;4.65;3.35;;;;;;;10.96;100.00;90531.41;5033554;28;20025;-61
2022/05/23 01:43:30;;;;;;;4.20;3.60;;;;;;;10.92;100.00;90533.16;5033245;28;20031;-61
2022/05/23 01:45:58;;;;;;;4.32;3.90;;;;;;;10.84;100.00;90533.97;5033381;28;20041;-61
2022/05/23 01:48:23;;;;;;;4.63;3.88;;;;;;;10.79;100.00;90527.72;5033322;28;20506;-61
2022/05/23 01:50:49;;;;;;;4.68;4.10;;;;;;;10.78;100.00;90536.81;5033335;28;20029;-61
2022/05/23 01:53:14;;;;;;;4.72;4.03;;;;;;;10.86;100.00;90537.06;5033158;28;20053;-61
2022/05/23 01:55:39;;;;;;;7.82;4.63;;;;;;;10.85;100.00;90532.84;5033185;28;20041;-61
2022/05/23 01:58:05;;;;;;;6.38;4.30;;;;;;;10.80;100.00;90528.50;5033505;28;20416;-61
2022/05/23 02:03:14;;;;;;;6.85;4.65;;;;;;;10.76;100.00;90532.91;5033108;28;20099;-60
2022/05/23 02:05:40;;;;;;;5.95;4.32;;;;;;;10.74;100.00;90530.56;5033066;28;20112;-62
2022/05/23 02:08:06;;;;;;;5.93;4.43;;;;;;;10.69;100.00;90530.72;5033050;28;20033;-61
2022/05/23 02:10:32;;;;;;;6.70;4.43;;;;;;;10.75;100.00;90521.47;5033068;28;20075;-61
2022/05/23 02:13:00;;;;;;;5.55;4.68;;;;;;;10.84;100.00;90518.78;5033012;28;20025;-61
2022/05/23 02:15:28;;;;;;;5.28;4.57;;;;;;;10.96;100.00;90521.53;5031812;28;20033;-61
2022/05/23 02:17:56;;;;;;;5.10;3.97;;;;;;;10.89;100.00;90529.25;5033009;28;20029;-61
2022/05/23 02:20:22;;;;;;;5.40;4.63;;;;;;;10.83;100.00;90543.03;5032789;28;20025;-61
2022/05/23 02:22:47;;;;;;;6.47;4.82;;;;;;;10.71;100.00;90530.41;5032654;28;20041;-61
2022/05/23 02:25:12;;;;;;;5.15;4.28;;;;;;;10.65;100.00;90531.69;5032615;28;20044;-61
2022/05/23 02:27:38;;;;;;;6.20;4.15;;;;;;;10.70;100.00;90534.94;5032352;28;20076;-61
2022/05/23 02:30:05;;;;;;;5.43;4.03;;;;;;;10.72;100.00;90531.97;5032651;28;20049;-61
2022/05/23 02:32:30;;;;;;;6.80;5.07;;;;;;;10.63;100.00;90509.94;5032470;28;20029;-61
2022/05/23 02:34:55;;;;;;;5.38;4.75;;;;;;;10.66;100.00;90517.28;5032489;28;20411;-60
2022/05/23 02:37:21;;;;;;;4.68;4.15;;;;;;;10.58;100.00;90531.41;5032277;28;20442;-60
2022/05/23 02:39:46;;;;;;;6.30;5.28;;;;;;;10.56;100.00;90536.22;5032391;28;20085;-60
2022/05/23 02:42:12;;;;;;;7.40;4.95;;;;;;;10.49;100.00;90537.50;5032414;28;20036;-61
2022/05/23 02:44:37;;;;;;;5.65;4.28;;;;;;;10.41;100.00;90541.00;5032602;28;20057;-61
2022/05/23 02:47:03;;;;;;;6.47;4.93;;;;;;;10.37;100.00;90531.28;5032445;28;20030;-61
2022/05/23 02:49:29;;;;;;;7.88;4.70;;;;;;;10.32;100.00;90529.59;5032153;28;20465;-61
2022/05/23 02:51:54;;;;;;;6.30;4.43;;;;;;;10.25;100.00;90521.28;5032100;28;20037;-60
2022/05/23 02:54:20;;;;;;;7.05;4.90;;;;;;;10.36;100.00;90545.69;5031947;28;20021;-60
2022/05/23 02:56:46;;;;;;;5.57;4.57;;;;;;;10.49;100.00;90539.41;5031900;28;20065;-60
2022/05/23 02:59:11;;;;;;;10.90;7.90;;;;;;;11.20;100.00;90530.81;5031578;28;20029;-60
2022/05/23 03:03:01;;;;;;;10.25;5.55;;;;;;;11.28;100.00;90520.13;5031868;28;20480;-60
2022/05/23 03:04:24;;;;;;;6.50;4.47;;;;;;;11.40;100.00;90532.75;5031749;28;20048;-60
2022/05/23 03:06:49;;;;;;;6.38;4.90;;;;;;;11.55;100.00;90526.88;5031802;28;20423;-60
2022/05/23 03:09:15;;;;;;;8.45;5.43;;;;;;;11.68;100.00;90531.16;5031696;28;20059;-60
2022/05/23 03:11:40;;;;;;;8.30;4.10;;;;;;;11.75;100.00;90535.19;5031763;28;20053;-60
2022/05/23 03:14:05;;;;;;;6.45;4.75;;;;;;;11.86;100.00;90542.50;5031718;28;20090;-60
2022/05/23 03:16:31;;;;;;;6.78;4.80;;;;;;;12.11;100.00;90543.38;5031624;28;20132;-60
2022/05/23 03:18:56;;;;;;;5.72;4.80;;;;;;;12.28;100.00;90540.56;5031529;28;20120;-60
2022/05/23 03:27:00;;;;;;;6.82;5.32;;;;;;;12.83;100.00;90530.63;5031100;28;20069;-61
2022/05/23 03:29:30;;;;;;;6.13;4.40;;;;;;;12.92;100.00;90549.19;5031438;28;20075;-61
2022/05/23 03:31:55;;;;;;;5.80;4.30;;;;;;;12.94;100.00;90547.78;5031470;28;20095;-61
2022/05/23 03:34:21;;;;;;;6.35;4.85;;;;;;;12.96;100.00;90545.56;5031620;28;20030;-61
2022/05/23 03:36:46;;;;;;;6.55;4.80;;;;;;;13.16;100.00;90544.69;5031301;28;20484;-60
2022/05/23 03:39:12;;;;;;;4.72;4.18;;;;;;;13.38;100.00;90540.03;5031303;28;20021;-61
2022/05/23 03:41:38;;;;;;;7.53;5.03;;;;;;;13.52;100.00;90529.00;5031335;28;20040;-61
2022/05/23 03:44:07;;;;;;;6.47;4.78;;;;;;;13.57;100.00;90532.25;5031431;28;20109;-61
2022/05/23 03:46:34;;;;;;;6.35;5.07;;;;;;;13.65;100.00;90525.22;5031445;28;20037;-61
2022/05/23 03:49:01;;;;;;;9.57;6.28;;;;;;;13.73;100.00;90514.41;5031218;28;20021;-61
2022/05/23 03:51:27;;;;;;;7.15;4.70;;;;;;;13.85;100.00;90510.13;5031145;28;20052;-61
2022/05/23 03:53:52;;;;;;;8.43;4.07;;;;;;;14.08;100.00;90511.19;5031427;28;20104;-61
2022/05/23 03:56:18;;;;;;;5.38;3.95;;;;;;;14.17;100.00;90508.34;5031354;28;20112;-61
2022/05/23 03:58:43;;;;;;;4.43;3.78;;;;;;;14.27;100.00;90507.88;5031349;28;20476;-61
2022/05/23 04:01:12;;;;;;;4.93;3.83;;;;;;;14.41;100.00;90504.81;5030862;28;20406;-61
2022/05/23 04:03:37;;;;;;;4.45;3.60;;;;;;;14.39;100.00;90505.16;5030972;28;20112;-61
2022/05/23 04:06:03;;;;;;;4.70;4.20;;;;;;;14.35;100.00;90509.63;5031028;28;20113;-59
2022/05/23 04:08:30;;;;;;;4.70;3.30;;;;;;;14.38;100.00;90509.75;5031063;28;20388;-60
2022/05/23 04:10:56;;;;;;;3.92;3.28;;;;;;;14.41;100.00;90505.59;5031267;28;20041;-60
2022/05/23 04:13:21;;;;;;;3.88;3.42;;;;;;;14.40;100.00;90493.34;5031052;28;20112;-60
2022/05/23 04:15:47;;;;;;;4.70;3.90;;;;;;;14.47;100.00;90504.25;5030778;28;20116;-61
2022/05/23 04:18:12;;;;;;;3.92;3.63;;;;;;;14.62;100.00;90495.47;5031051;28;20029;-62
2022/05/23 04:20:38;;;;;;;4.70;3.75;;;;;;;14.79;100.00;90504.31;5030751;28;20415;-62
2022/05/23 04:23:03;;;;;;;4.43;3.63;;;;;;;15.05;100.00;90504.59;5030967;28;20025;-62
2022/05/23 04:25:29;;;;;;;3.92;3.53;;;;;;;15.30;100.00;90510.53;5030724;28;20037;-62
2022/05/23 04:27:55;;;;;;;4.57;3.65;;;;;;;15.43;100.00;90503.19;5030911;28;20752;-61
2022/05/23 04:30:20;;;;;;;3.75;2.92;;;;;;;15.58;100.00;90503.16;5030992;28;20283;-61
2022/05/23 04:35:30;;;;;;;3.60;3.08;;;;;;;15.86;99.96;90508.41;5030897;28;20084;-62
2022/05/23 04:37:55;;;;;;;3.20;2.90;;;;;;;16.09;97.73;90497.75;5030776;28;20033;-61
2022/05/23 04:40:27;;;;;;;3.50;2.60;;;;;;;16.39;94.31;90498.00;5034194;28;20077;-61
2022/05/23 04:42:53;;;;;;;3.08;2.80;;;;;;;16.66;91.24;90501.59;5034666;28;20060;-62
2022/05/23 04:45:19;;;;;;;3.20;2.88;;;;;;;16.68;87.88;90493.97;5034509;28;20053;-62
2022/05/23 04:50:29;;;;;;;4.43;3.45;;;;;;;16.85;90.03;90500.78;5034807;28;20084;-61
2022/05/23 04:52:56;;;;;;;3.30;3.00;;;;;;;16.78;93.14;90495.31;5034365;28;20053;-61
2022/05/23 04:55:21;;;;;;;3.47;3.17;;;;;;;16.89;94.57;90504.34;5034349;28;20415;-61
2022/05/23 04:57:47;;;;;;;4.22;3.30;;;;;;;16.99;92.74;90495.69;5034281;28;20026;-61
2022/05/23 05:00:17;;;;;;;4.45;3.10;;;;;;;17.24;89.94;90493.41;5034161;28;20027;-61
2022/05/23 05:02:43;;;;;;;4.57;3.10;;;;;;;17.30;87.93;90494.66;5034328;28;20041;-61
2022/05/23 05:05:08;;;;;;;3.22;2.92;;;;;;;17.58;82.33;90505.09;5033998;28;20056;-61
2022/05/23 05:07:34;;;;;;;3.83;3.25;;;;;;;17.63;81.16;90499.41;5034108;28;20040;-61
2022/05/23 05:09:59;;;;;;;6.47;5.05;;;;;;;17.44;80.45;90504.88;5034013;28;20396;-61
2022/05/23 05:12:25;;;;;;;5.45;4.10;;;;;;;17.36;80.20;90503.22;5034086;28;20459;-61
2022/05/23 05:14:50;;;;;;;3.08;2.80;;;;;;;17.41;80.44;90502.13;5034148;28;20526;-60
2022/05/23 05:17:16;;;;;;;6.35;3.28;;;;;;;17.45;80.43;90508.34;5033853;28;20056;-61
2022/05/23 05:19:42;;;;;;;4.47;3.22;;;;;;;17.45;79.00;90486.81;5034060;28;20495;-61
2022/05/23 05:22:07;;;;;;;9.25;3.30;;;;;;;17.40;80.14;90490.59;5034004;28;20033;-61
2022/05/23 05:24:33;;;;;;;3.72;3.00;;;;;;;17.40;78.96;90485.22;5034028;28;20028;-61
2022/05/23 05:27:00;;;;;;;5.50;3.50;;;;;;;17.42;81.22;90484.88;5033563;28;20150;-61
2022/05/23 05:29:26;;;;;;;5.15;3.40;;;;;;;17.99;81.47;90483.00;5033537;28;20026;-61
2022/05/23 05:32:09;;;;;;;4.00;3.03;;;;;;;20.66;69.69;90490.81;5033330;28;20029;-62
2022/05/23 05:34:56;;;;;;;3.78;2.53;;;;;;;23.11;59.27;90479.91;5021158;28;20038;-62
2022/05/23 05:37:30;;;;;;;3.17;2.88;;;;;;;23.00;58.69;90490.03;5013668;28;20112;-63
2022/05/23 05:39:59;;;;;;;5.00;3.85;;;;;;;22.54;58.88;90498.31;5013793;28;20030;-63
2022/05/23 05:42:38;;;;;;;14.57;7.63;;;;;;;22.63;60.17;90502.19;5013595;28;20415;-63
2022/05/23 05:45:12;;;;;;;5.78;3.22;;;;;;;24.11;55.14;90495.53;5013075;28;20566;-62
2022/05/23 05:47:42;;;;;;;3.83;2.78;;;;;;;24.86;52.39;90494.78;5013525;28;20105;-63
2022/05/23 05:50:14;;;;;;;4.35;3.10;;;;;;;25.26;52.07;90496.66;5013507;28;20052;-62
2022/05/23 05:52:40;;;;;;;8.02;3.55;;;;;;;26.01;49.99;90483.91;5013529;28;20025;-61
2022/05/23 05:55:07;;;;;;;3.97;3.08;;;;;;;27.26;45.50;90482.44;5013287;28;20029;-66
2022/05/23 05:57:33;;;;;;;4.95;2.60;;;;;;;27.01;46.58;90485.72;5012935;28;20040;-64
2022/05/23 05:59:59;;;;;;;5.47;3.25;;;;;;;26.64;45.78;90498.44;5012952;28;20377;-63
2022/05/23 06:02:25;;;;;;;9.98;3.65;;;;;;;27.28;45.69;90496.44;5012582;28;20109;-64
2022/05/23 06:04:51;;;;;;;4.95;3.58;;;;;;;27.23;46.44;90495.00;5012901;28;20121;-63
2022/05/23 06:12:59;;;;;;;3.55;2.90;;;;;;;26.99;45.00;90502.47;5012764;28;20408;-63
2022/05/23 06:15:24;;;;;;;3.40;3.10;;;;;;;27.72;43.96;90500.63;5012582;28;20030;-64
2022/05/23 06:17:51;;;;;;;3.22;2.92;;;;;;;27.21;44.35;90507.53;5012675;28;20057;-65
2022/05/23 06:20:19;;;;;;;4.07;3.10;;;;;;;25.23;46.12;90505.63;5012574;28;20080;-66
2022/05/23 06:22:45;;;;;;;3.40;3.10;;;;;;;21.41;53.26;90518.88;5012500;28;20029;-64
2022/05/23 06:25:13;;;;;;;5.80;3.30;;;;;;;20.30;56.17;90523.84;4995042;28;20040;-63
2022/05/23 06:27:40;;;;;;;7.80;3.25;;;;;;;19.81;56.74;90513.47;5012193;28;20050;-64
2022/05/23 06:30:07;;;;;;;5.78;4.18;;;;;;;18.81;59.50;90511.78;5012506;28;20033;-64
2022/05/23 06:32:33;;;;;;;5.38;4.20;;;;;;;18.92;63.21;90509.94;5012464;28;20026;-64
2022/05/23 06:34:58;;;;;;;5.90;3.90;;;;;;;18.98;63.50;90505.03;5012221;28;20022;-65
2022/05/23 06:37:24;;;;;;;5.05;3.83;;;;;;;18.92;64.87;90501.88;5012174;28;20087;-64
2022/05/23 06:39:50;;;;;;;10.18;4.43;;;;;;;20.49;61.04;90495.00;5012194;28;20030;-63
2022/05/23 06:42:15;;;;;;;5.65;3.90;;;;;;;23.87;52.26;90500.00;5012233;28;20541;-63
2022/05/23 06:44:41;;;;;;;4.78;3.08;;;;;;;25.33;47.17;90502.00;5011813;28;20033;-64
2022/05/23 06:47:07;;;;;;;6.93;3.10;;;;;;;26.65;43.13;90499.97;5011724;28;20539;-64
2022/05/23 06:49:32;;;;;;;5.63;3.80;;;;;;;25.10;45.61;90496.50;5012155;28;20030;-64
2022/05/23 06:51:57;;;;;;;4.43;3.10;;;;;;;23.63;49.25;90498.22;5012066;28;20057;-63
2022/05/23 06:54:23;;;;;;;5.85;3.22;;;;;;;22.40;50.88;90491.00;5012161;28;20022;-63
2022/05/23 06:56:49;;;;;;;7.72;3.35;;;;;;;22.51;52.08;90497.16;5012050;28;20022;-63
2022/05/23 06:59:17;;;;;;;2.88;2.30;;;;;;;21.16;54.05;90491.78;5011866;28;20026;-62
2022/05/23 07:01:43;;;;;;;4.22;2.80;;;;;;;20.99;54.38;90497.88;5011470;28;20068;-62
2022/05/23 07:04:09;;;;;;;3.58;2.63;;;;;;;22.36;53.08;90491.00;5011906;28;20026;-63
2022/05/23 07:12:21;;;;;;;3.53;2.55;;;;;;;27.90;41.88;90489.28;5011967;28;20084;-63
2022/05/23 07:14:56;;;;;;;3.47;2.60;;;;;;;28.04;39.56;90494.41;5011517;28;20040;-63
2022/05/23 07:17:23;;;;;;;8.50;2.95;;;;;;;27.17;40.38;90487.72;5011831;28;20022;-62
2022/05/23 07:19:49;;;;;;;5.07;3.58;;;;;;;27.70;39.63;90479.19;5012139;28;20037;-63
2022/05/23 07:22:15;;;;;;;3.17;2.63;;;;;;;26.45;42.18;90491.00;5011825;28;20028;-64
2022/05/23 07:24:41;;;;;;;5.28;3.03;;;;;;;26.13;43.79;90489.56;5011877;28;20076;-63
2022/05/23 07:27:07;;;;;;;6.93;3.10;;;;;;;26.48;42.38;90504.56;5011500;28;20050;-63
2022/05/23 07:29:33;;;;;;;4.53;3.05;;;;;;;27.37;41.58;90493.94;5011317;28;20492;-62
2022/05/23 07:31:58;;;;;;;4.40;2.90;;;;;;;26.48;43.27;90496.38;5011744;28;20041;-62
2022/05/23 07:34:24;;;;;;;3.97;2.92;;;;;;;26.66;43.08;90501.50;5011869;28;20021;-61
2022/05/23 07:36:49;;;;;;;4.45;3.05;;;;;;;27.29;42.30;90495.25;5011547;28;20480;-63
2022/05/23 07:39:15;;;;;;;6.03;3.92;;;;;;;28.48;40.55;90492.97;5011755;28;20108;-62
2022/05/23 07:41:42;;;;;;;7.97;3.08;;;;;;;26.96;41.04;90489.66;5011590;28;20033;-62
2022/05/23 07:44:10;;;;;;;5.78;3.42;;;;;;;27.37;40.80;90510.31;5011034;28;20507;-62
2022/05/23 07:46:37;;;;;;;4.13;3.28;;;;;;;27.39;41.06;90488.81;5011474;28;20188;-63
2022/05/23 07:49:04;;;;;;;9.93;3.80;;;;;;;28.04;39.05;90510.81;5011329;28;20033;-63
2022/05/23 07:51:32;;;;;;;3.53;2.88;;;;;;;27.93;39.42;90513.03;5011385;28;20471;-63
2022/05/23 08:02:11;;;;;;;8.05;4.50;;;;;;;28.54;38.17;90498.69;5011551;28;20482;-64
2022/05/23 08:04:38;;;;;;;7.25;4.60;;;;;;;28.40;38.40;90502.53;5011340;28;20110;-63
2022/05/23 08:07:09;;;;;;;7.85;3.40;;;;;;;29.12;37.00;90509.72;5011236;28;20022;-64
2022/05/23 08:09:39;;;;;;;4.90;3.05;;;;;;;29.13;38.00;90505.78;5011182;28;20442;-64
2022/05/23 08:12:06;;;;;;;3.92;3.25;;;;;;;31.25;34.06;90516.09;5011283;28;20038;-64
2022/05/23 08:14:32;;;;;;;4.32;2.63;;;;;;;31.35;33.67;90503.16;5012720;28;20037;-65
2022/05/23 08:16:58;;;;;;;3.63;3.22;;;;;;;32.31;32.45;90503.13;5015107;28;20036;-65
2022/05/23 08:19:23;;;;;;;5.10;3.22;;;;;;;30.69;34.34;90497.56;5015285;28;20415;-64
2022/05/23 08:21:52;;;;;;;9.48;3.80;;;;;;;28.29;37.94;90477.44;5015158;28;20411;-64
2022/05/23 08:24:18;;;;;;;8.02;4.10;;;;;;;30.37;36.21;90495.84;5015116;28;20018;-64
2022/05/23 08:26:44;;;;;;;6.60;3.85;;;;;;;30.24;35.45;90493.13;5014842;28;20149;-63
2022/05/23 08:29:10;;;;;;;5.93;3.70;;;;;;;30.03;35.93;90497.28;5014593;28;20113;-62
2022/05/23 08:31:36;;;;;;;6.03;4.15;;;;;;;29.60;36.46;90492.31;5015000;28;20044;-63
2022/05/23 08:34:02;;;;;;;5.78;3.70;;;;;;;29.44;37.98;90498.63;5014886;28;20480;-61
2022/05/23 08:36:28;;;;;;;6.97;4.07;;;;;;;27.93;38.34;90483.75;5014750;28;20558;-62
2022/05/23 08:38:54;;;;;;;4.55;3.53;;;;;;;30.01;36.54;90496.97;5014813;28;20030;-62
2022/05/23 08:41:29;;;;;;;9.65;4.28;;;;;;;28.05;38.18;90504.91;4997136;28;20037;-62
2022/05/23 08:44:13;;;;;;;7.90;3.78;;;;;;;29.00;37.94;90497.50;5014385;28;20611;-63
2022/05/23 08:46:45;;;;;;;6.35;4.00;;;;;;;26.92;40.12;90496.38;5014698;28;20030;-67
2022/05/23 08:49:13;;;;;;;12.38;5.35;;;;;;;25.17;43.80;90499.09;5011574;28;20087;-69
2022/05/23 08:51:55;;;;;;;9.15;4.95;;;;;;;24.47;46.17;90501.44;5014684;28;20041;-65
2022/05/23 08:54:31;;;;;;;5.65;3.70;;;;;;;26.77;41.88;90504.06;4996988;28;20088;-69
2022/05/23 08:57:01;;;;;;;6.90;3.60;;;;;;;28.24;39.95;90499.78;5014530;28;20034;-67
2022/05/23 08:59:43;;;;;;;5.47;4.07;;;;;;;28.47;39.65;90490.66;5014150;28;20026;-66
2022/05/23 09:02:13;;;;;;;4.47;3.60;;;;;;;28.06;39.17;90486.53;5014420;28;20113;-65
2022/05/23 09:04:54;;;;;;;7.20;4.20;;;;;;;28.76;39.37;90491.47;5014302;28;20109;-66
2022/05/23 09:07:25;;;;;;;4.32;3.90;;;;;;;29.85;37.54;90488.06;5014197;28;20121;-66
2022/05/23 09:09:54;;;;;;;5.80;3.92;;;;;;;29.14;36.77;90504.56;5014226;28;20113;-69
2022/05/23 09:12:19;;;;;;;5.32;3.25;;;;;;;27.66;38.49;90491.38;5013871;28;20037;-68
2022/05/23 09:14:45;;;;;;;5.53;3.55;;;;;;;28.46;38.35;90489.13;5014012;28;20030;-68
2022/05/23 09:17:21;;;;;;;4.93;3.00;;;;;;;31.57;34.29;90487.44;5014056;28;20496;-69
2022/05/23 09:20:00;;;;;;;4.20;2.92;;;;;;;28.93;37.56;90494.97;5013958;28;20045;-68
2022/05/23 09:22:43;;;;;;;9.20;3.20;;;;;;;27.93;39.92;90493.88;5013927;28;20029;-69
2022/05/23 09:25:12;;;;;;;5.10;3.50;;;;;;;30.65;37.26;90481.22;5013475;28;20111;-68
2022/05/23 09:27:43;;;;;;;5.18;3.42;;;;;;;29.41;38.26;90480.31;5013359;28;20084;-67
2022/05/23 09:30:14;;;;;;;3.85;3.00;;;;;;;29.83;36.59;90480.28;5013958;28;20032;-68
2022/05/23 09:32:55;;;;;;;3.72;2.88;;;;;;;25.49;43.27;90484.28;5013882;28;20030;-68
2022/05/23 09:35:26;;;;;;;4.70;3.00;;;;;;;25.51;43.09;90482.69;5013684;28;20026;-66
2022/05/23 09:38:14;;;;;;;4.10;3.20;;;;;;;24.85;44.61;90488.59;5013400;28;20033;-66
2022/05/23 09:40:39;;;;;;;5.10;3.00;;;;;;;23.71;46.67;90475.28;5013640;28;20151;-66
2022/05/23 09:49:11;;;;;;;4.57;2.90;;;;;;;25.85;43.31;90477.16;5013684;28;20099;-66
2022/05/23 09:52:02;;;;;;;3.83;2.88;;;;;;;27.99;39.53;90468.34;5013317;28;20536;-67
2022/05/23 09:54:40;;;;;;;2.70;2.42;;;;;;;29.08;37.60;90467.97;5013533;28;20034;-67
2022/05/23 09:57:32;;;;;;;2.65;2.30;;;;;;;29.20;36.29;90459.78;5013150;28;20045;-67
2022/05/23 09:59:58;;;;;;;7.03;3.00;;;;;;;29.73;37.98;90471.16;4978689;28;20515;-66
2022/05/23 10:02:29;;;;;;;3.38;3.08;;;;;;;29.53;36.71;90465.13;5013039;28;20268;-67
2022/05/23 10:04:55;;;;;;;6.78;2.60;;;;;;;29.07;37.79;90466.44;5012997;28;20041;-67
2022/05/23 10:07:29;;;;;;;4.18;2.50;;;;;;;28.24;38.42;90462.25;5013197;28;20431;-67
2022/05/23 10:09:58;;;;;;;2.85;2.50;;;;;;;29.18;37.61;90466.88;5013195;28;20033;-69
2022/05/23 10:12:24;;;;;;;2.78;2.38;;;;;;;27.81;39.17;90462.53;5012953;28;20036;-67
2022/05/23 10:15:00;;;;;;;2.97;2.38;;;;;;;26.98;40.45;90451.78;5012966;28;20022;-68
2022/05/23 10:17:50;;;;;;;4.25;2.63;;;;;;;28.73;37.85;90464.97;5013025;28;20041;-67
2022/05/23 10:20:25;;;;;;;4.07;2.20;;;;;;;32.25;32.95;90471.88;5011866;28;20042;-67
2022/05/23 10:23:01;;;;;;;9.10;2.22;;;;;;;30.72;34.24;90468.44;5012925;28;20037;-68
2022/05/23 10:25:35;;;;;;;2.92;2.40;;;;;;;29.83;37.13;90463.84;5012773;28;20026;-67
2022/05/23 10:28:14;;;;;;;11.73;2.60;;;;;;;28.97;36.71;90457.28;5012478;28;20072;-67
2022/05/23 10:30:49;;;;;;;3.95;2.60;;;;;;;28.92;36.85;90438.66;5012694;28;20026;-69
2022/05/23 10:33:15;;;;;;;2.60;2.40;;;;;;;27.83;39.34;90467.56;5012601;28;20030;-67
2022/05/23 10:36:16;;;;;;;3.47;2.20;;;;;;;27.72;39.63;90456.88;5012554;28;20389;-67
2022/05/23 10:44:38;;;;;;;5.18;2.08;;;;;;;32.78;31.73;90450.44;5012437;28;20175;-67
2022/05/23 10:47:25;;;;;;;2.83;2.40;;;;;;;32.16;32.19;90452.56;5012432;28;20026;-64
2022/05/23 10:50:03;;;;;;;3.88;2.17;;;;;;;30.35;34.12;90449.66;5012418;28;20778;-64
2022/05/23 10:52:42;;;;;;;2.38;2.17;;;;;;;29.84;35.00;90442.66;5012285;28;20307;-67
2022/05/23 10:55:11;;;;;;;2.92;2.20;;;;;;;29.45;35.38;90452.81;5011078;28;20026;-64
2022/05/23 10:58:23;;;;;;;4.90;2.20;;;;;;;29.68;35.31;90443.53;5012436;28;20036;-64
2022/05/23 11:00:56;;;;;;;2.45;2.08;;;;;;;29.38;35.10;90444.81;5012388;28;20041;-64
2022/05/23 11:03:52;;;;;;;2.22;1.90;;;;;;;29.28;35.31;90432.94;5012298;28;20022;-64
2022/05/23 11:06:34;;;;;;;3.03;2.20;;;;;;;30.74;33.63;90422.09;5012263;28;20029;-64
2022/05/23 11:09:03;;;;;;;3.55;2.67;;;;;;;30.13;34.53;90428.81;5012323;28;20101;-64
2022/05/23 11:11:39;;;;;;;3.85;1.98;;;;;;;28.30;36.37;90424.25;5012287;28;20029;-64
2022/05/23 11:14:43;;;;;;;3.45;2.40;;;;;;;27.94;38.57;90410.69;5012467;28;20026;-63
2022/05/23 11:17:12;;;;;;;3.75;2.67;;;;;;;27.77;37.33;90409.91;5009882;28;20116;-63
2022/05/23 11:20:03;;;;;;;2.42;2.00;;;;;;;28.71;37.39;90415.34;5012077;28;20034;-64
2022/05/23 11:22:38;;;;;;;8.80;2.22;;;;;;;28.96;38.19;90411.94;5011882;28;20030;-63
2022/05/23 11:25:08;;;;;;;2.72;2.30;;;;;;;28.21;36.88;90405.69;5011910;28;20034;-63
2022/05/23 11:36:01;;;;;;;4.32;2.42;;;;;;;29.67;36.54;90409.09;5011796;28;20171;-64
2022/05/23 11:38:29;;;;;;;3.40;1.98;;;;;;;29.18;36.40;90398.38;5011748;28;20493;-64
2022/05/23 11:41:03;;;;;;;3.72;2.17;;;;;;;29.45;36.79;90415.19;5011765;28;20046;-64
2022/05/23 11:43:29;;;;;;;4.80;2.15;;;;;;;30.24;34.50;90399.06;5011667;28;20096;-64
2022/05/23 11:46:04;;;;;;;4.72;3.13;;;;;;;30.87;33.62;90412.59;5011861;28;20034;-64
2022/05/23 11:48:40;;;;;;;4.53;2.60;;;;;;;29.23;35.93;90415.06;5011550;28;20033;-64
2022/05/23 11:51:21;;;;;;;6.82;2.85;;;;;;;28.69;37.04;90415.00;4994072;28;20065;-64
2022/05/23 11:54:07;;;;;;;2.83;2.50;;;;;;;27.50;38.54;90417.56;5011645;28;20046;-64
2022/05/23 11:56:46;;;;;;;2.42;2.13;;;;;;;28.83;36.09;90406.41;5011489;28;20100;-64
2022/05/23 11:59:24;;;;;;;5.68;2.50;;;;;;;26.74;39.46;90404.69;5011543;28;20484;-64
2022/05/23 12:02:08;;;;;;;4.55;1.95;;;;;;;26.20;40.33;90410.38;5011512;28;20045;-65
2022/05/23 12:04:48;;;;;;;6.13;2.63;;;;;;;25.95;41.25;90410.03;5011313;28;20044;-65
2022/05/23 12:07:41;;;;;;;2.30;2.08;;;;;;;24.91;42.78;90409.97;5011399;28;20042;-65
2022/05/23 12:10:25;;;;;;;6.05;2.38;;;;;;;23.86;44.44;90411.53;5011263;28;20504;-65
2022/05/23 12:12:55;;;;;;;2.40;2.17;;;;;;;24.64;42.13;90397.13;5011202;28;20049;-65
2022/05/23 12:15:50;;;;;;;2.78;2.35;;;;;;;25.85;41.03;90400.84;5011156;28;20102;-65
2022/05/23 12:18:21;;;;;;;2.08;1.85;;;;;;;27.02;38.16;90403.38;5011252;28;20073;-64
2022/05/23 12:20:59;;;;;;;2.38;2.00;;;;;;;27.01;38.69;90401.84;5011265;28;20042;-64
2022/05/23 12:23:41;;;;;;;3.50;2.60;;;;;;;26.60;40.77;90412.38;5011258;28;20125;-64
2022/05/23 12:26:10;;;;;;;2.30;2.10;;;;;;;25.71;41.98;90401.06;5010918;28;20056;-64
2022/05/23 12:29:40;;;;;;;3.30;2.80;;;;;;;27.07;40.52;90400.13;5011104;28;20052;-64
2022/05/23 12:32:12;;;;;;;9.27;2.70;;;;;;;27.22;39.21;90402.56;4970039;28;20047;-64
2022/05/23 12:34:46;;;;;;;3.13;2.83;;;;;;;27.82;39.39;90397.69;5004253;28;20124;-64
2022/05/23 12:37:26;;;;;;;6.07;2.28;;;;;;;29.02;37.85;90395.72;5011336;28;20034;-65
2022/05/23 12:40:07;;;;;;;5.93;2.22;;;;;;;27.39;39.88;90406.84;5011075;28;20041;-64
2022/05/23 12:43:05;;;;;;;2.53;2.20;;;;;;;28.07;39.50;90403.31;5010916;28;20045;-64